Greenfield, IL

7:20 AM CST on March 02, 2015 (GMT -0600)
Carlinville Sumner Street | Change Station
CLOSE
Current Station
Personal Weather Station
Location: Carlinville, IL
Elevation: 500 ft
Nearby Weather Stations

Elev 500 ft 39.29 °N, 89.88 °W | Updated 2 seconds ago

Mostly Cloudy
Mostly Cloudy
16.5 °F
Feels Like 16 °F
N
0.0
Wind Variable Wind from WNW
Gusts 0.0 mph

Today
High -- | Low -- °F
--% Chance of Precip.
Yesterday
High -- | Low -- °F
Precip. -- in
6:32 AM 5:53 PM
Waxing Gibbous, 91% visible
Pressure 30.53 in
Visibility 0.2 miles
Clouds
Windchill 16 °F
Dew Point 14 °F
Humidity 89%
Rainfall 0.00 in
Snow Depth Not available.
UV Not available.
Pollen .50 out of 12
Air Quality Not available.
Flu Activity Not available.
METAR KIJX 021255Z AUTO 22004KT M1/4SM FZFG VV000 M09/M10 A3053 RMK AO2 T10921105

More Conditions Fewer Conditions

Pressure 30.53 in
Visibility 0.2 miles
Clouds
Windchill 16 °F
Dew Point 14 °F
Humidity 89%
Rainfall 0.00 in
Snow Depth Not available.
UV Not available.
Pollen .50 out of 12
Air Quality Not available.
Flu Activity Not available.
METAR KIJX 021255Z AUTO 22004KT M1/4SM FZFG VV000 M09/M10 A3053 RMK AO2 T10921105

More Conditions Fewer Conditions

10-Day Weather Forecast

Almanac

Astronomy

Mar. 02, 2015 Rise Set
Actual Time
Civil Twilight
Nautical Twilight
Astronomical Twilight
Moon
Length of Visible Light
Length of Day
Tomorrow will be .
, % of the Moon is Illuminated

Today's Extremes

State Highs State Lows

Community

WunderPhotos

Upload Photos

1,801,781 photos uploaded!

WunderBlogs® & News

Nearby

Air Quality

  Air Quality AQ Index Pollutant
Not available.

Snow Depth

Station Depth Elevation

Earthquake Activity

City Distance Mag. Time & Date
Minimum magnitude displayed is 2.5.

Coastal Water Temperatures

Place Temperature

Nearby Weather Stations